Skip Navigation LinksHome page > Tools > METAR decoder Skip Navigation Links

METAR decoder

Settings

METAR

Chicago O'Hare Intl, Chicago

For information only: do not use for flight planning or navigation.
Latest weather
Observation time Wednesday, September 17, 2014 3:51 AM CDT
Local time Wednesday, September 17, 2014 4:29 AM CDT
Flight conditions Visual Meteorological Conditions
Winds
Wind speed calm
Visibility 10 mi.
Sky condition
Ceiling unlimited
Sky clear
Temperature 52°F
Dewpoint 46°F
Altimeter 30.05 in.Hg
Pressure change last 3 hours0.02 in.Hg
Pressure falling more slowly
Derived measurements
Relative humidity 80%
Density altitude 207 ft.
Sea-level pressure 30.05 in.Hg
Remarks
System requires maintenance.
Automated weather observing station with precipitation discriminator.
METAR KORD 170851Z 00000KT 10SM CLR 11/08 A3005 RMK AO2 SLP177 T01110078 56007 $

InnerDrive.Weather 4.0.5372.0 Release CLR 4.0.30319.34014
Copyright ©2014 Inner Drive Technology. All rights reserved. Portions Copyright ©1986-2014 David Braverman.

Find weather

Site navigation


Skip Navigation Links

Place info

Page info

PayPal - The safer, easier way to pay online!

Return home.

Copyright ©2014 Inner Drive Technology. Purveyors of fine, hand-crafted computer software. Page printed 2014-09-17T09:29:43 UTC.